sensor_id;sensor_type;location;lat;lon;timestamp;noise_LAeq;noise_LA_min;noise_LA_max;noise_LA01;noise_LA95
75037;Laerm;64247;51.540;5.854;2023-01-24T00:01:18;47.41;46.01;51.39;;
75037;Laerm;64247;51.540;5.854;2023-01-24T00:03:20;48.12;46.14;53.67;;
75037;Laerm;64247;51.540;5.854;2023-01-24T00:05:21;47.70;45.80;54.18;;
75037;Laerm;64247;51.540;5.854;2023-01-24T00:07:22;47.68;45.71;50.39;;
75037;Laerm;64247;51.540;5.854;2023-01-24T00:09:23;47.65;45.92;54.15;;
75037;Laerm;64247;51.540;5.854;2023-01-24T00:11:24;48.89;46.23;55.30;;
75037;Laerm;64247;51.540;5.854;2023-01-24T00:13:25;48.00;46.24;54.09;;
75037;Laerm;64247;51.540;5.854;2023-01-24T00:15:26;48.15;46.48;53.20;;
75037;Laerm;64247;51.540;5.854;2023-01-24T00:17:26;47.80;46.00;53.94;;
75037;Laerm;64247;51.540;5.854;2023-01-24T00:19:27;47.96;46.18;52.06;;
75037;Laerm;64247;51.540;5.854;2023-01-24T00:21:28;47.84;45.99;50.98;;
75037;Laerm;64247;51.540;5.854;2023-01-24T00:23:29;47.71;46.27;50.77;;
75037;Laerm;64247;51.540;5.854;2023-01-24T00:25:30;48.38;46.33;61.23;;
75037;Laerm;64247;51.540;5.854;2023-01-24T00:27:31;47.72;46.01;53.02;;
75037;Laerm;64247;51.540;5.854;2023-01-24T00:29:35;47.89;46.01;60.69;;
75037;Laerm;64247;51.540;5.854;2023-01-24T00:31:35;47.89;45.94;52.88;;
75037;Laerm;64247;51.540;5.854;2023-01-24T00:33:37;47.89;46.26;53.25;;
75037;Laerm;64247;51.540;5.854;2023-01-24T00:35:37;48.00;46.25;53.69;;
75037;Laerm;64247;51.540;5.854;2023-01-24T00:37:38;48.29;46.23;59.24;;
75037;Laerm;64247;51.540;5.854;2023-01-24T00:39:39;48.79;46.42;53.97;;
75037;Laerm;64247;51.540;5.854;2023-01-24T00:41:40;48.20;46.25;57.91;;
75037;Laerm;64247;51.540;5.854;2023-01-24T00:43:41;48.79;45.92;60.22;;
75037;Laerm;64247;51.540;5.854;2023-01-24T00:45:44;48.36;46.25;59.30;;
75037;Laerm;64247;51.540;5.854;2023-01-24T00:47:45;48.62;46.66;58.02;;
75037;Laerm;64247;51.540;5.854;2023-01-24T00:49:46;49.72;46.60;60.84;;
75037;Laerm;64247;51.540;5.854;2023-01-24T00:51:47;49.40;46.57;60.24;;
75037;Laerm;64247;51.540;5.854;2023-01-24T00:53:48;49.03;45.97;59.66;;
75037;Laerm;64247;51.540;5.854;2023-01-24T00:55:49;48.49;45.70;57.87;;
75037;Laerm;64247;51.540;5.854;2023-01-24T00:57:51;47.71;45.56;55.47;;
75037;Laerm;64247;51.540;5.854;2023-01-24T00:59:52;47.64;45.43;53.37;;
75037;Laerm;64247;51.540;5.854;2023-01-24T01:01:52;47.51;45.55;52.21;;
75037;Laerm;64247;51.540;5.854;2023-01-24T01:03:57;49.03;46.11;57.87;;
75037;Laerm;64247;51.540;5.854;2023-01-24T01:06:05;49.14;47.27;56.95;;
75037;Laerm;64247;51.540;5.854;2023-01-24T01:08:07;49.33;47.11;56.77;;
75037;Laerm;64247;51.540;5.854;2023-01-24T01:10:10;49.72;47.43;61.38;;
75037;Laerm;64247;51.540;5.854;2023-01-24T01:12:11;51.28;48.25;60.12;;
75037;Laerm;64247;51.540;5.854;2023-01-24T01:14:12;50.66;47.68;60.24;;
75037;Laerm;64247;51.540;5.854;2023-01-24T01:16:17;49.06;47.22;53.82;;
75037;Laerm;64247;51.540;5.854;2023-01-24T01:18:19;49.81;47.62;58.74;;
75037;Laerm;64247;51.540;5.854;2023-01-24T01:20:20;50.27;48.27;58.44;;
75037;Laerm;64247;51.540;5.854;2023-01-24T01:22:21;50.05;47.94;56.16;;
75037;Laerm;64247;51.540;5.854;2023-01-24T01:24:21;49.58;47.64;56.88;;
75037;Laerm;64247;51.540;5.854;2023-01-24T01:26:22;49.65;47.78;55.21;;
75037;Laerm;64247;51.540;5.854;2023-01-24T01:28:23;49.31;47.44;52.83;;
75037;Laerm;64247;51.540;5.854;2023-01-24T01:30:24;49.28;47.47;54.05;;
75037;Laerm;64247;51.540;5.854;2023-01-24T01:32:25;49.35;47.42;55.21;;
75037;Laerm;64247;51.540;5.854;2023-01-24T01:34:26;49.35;46.74;54.89;;
75037;Laerm;64247;51.540;5.854;2023-01-24T01:36:27;49.83;47.83;57.99;;
75037;Laerm;64247;51.540;5.854;2023-01-24T01:38:27;49.29;46.85;54.22;;
75037;Laerm;64247;51.540;5.854;2023-01-24T01:40:29;49.86;47.88;57.84;;
75037;Laerm;64247;51.540;5.854;2023-01-24T01:42:59;50.24;47.68;60.04;;
75037;Laerm;64247;51.540;5.854;2023-01-24T01:45:39;50.58;48.11;61.65;;
75037;Laerm;64247;51.540;5.854;2023-01-24T01:47:40;51.03;47.63;63.31;;
75037;Laerm;64247;51.540;5.854;2023-01-24T01:50:04;49.64;47.78;60.48;;
75037;Laerm;64247;51.540;5.854;2023-01-24T01:52:06;49.94;47.94;57.50;;
75037;Laerm;64247;51.540;5.854;2023-01-24T01:54:16;49.79;47.79;60.12;;
75037;Laerm;64247;51.540;5.854;2023-01-24T01:56:56;49.31;47.33;61.29;;
75037;Laerm;64247;51.540;5.854;2023-01-24T01:59:06;49.37;47.42;54.69;;
75037;Laerm;64247;51.540;5.854;2023-01-24T02:01:09;48.40;46.50;53.71;;
75037;Laerm;64247;51.540;5.854;2023-01-24T02:03:14;48.55;45.75;57.81;;
75037;Laerm;64247;51.540;5.854;2023-01-24T02:05:34;49.29;46.11;58.90;;
75037;Laerm;64247;51.540;5.854;2023-01-24T02:07:52;48.95;45.64;61.42;;
75037;Laerm;64247;51.540;5.854;2023-01-24T02:09:55;49.55;46.84;57.49;;
75037;Laerm;64247;51.540;5.854;2023-01-24T02:12:04;50.62;46.59;61.88;;
75037;Laerm;64247;51.540;5.854;2023-01-24T02:14:11;51.12;46.62;60.38;;
75037;Laerm;64247;51.540;5.854;2023-01-24T02:16:30;48.63;46.22;61.22;;
75037;Laerm;64247;51.540;5.854;2023-01-24T02:18:36;49.61;46.44;61.21;;
75037;Laerm;64247;51.540;5.854;2023-01-24T02:20:58;49.70;46.61;62.05;;
75037;Laerm;64247;51.540;5.854;2023-01-24T02:23:54;49.09;46.11;58.65;;
75037;Laerm;64247;51.540;5.854;2023-01-24T02:26:22;48.74;46.37;55.81;;
75037;Laerm;64247;51.540;5.854;2023-01-24T02:28:24;48.09;46.06;55.30;;
75037;Laerm;64247;51.540;5.854;2023-01-24T02:30:25;48.16;46.09;56.26;;
75037;Laerm;64247;51.540;5.854;2023-01-24T02:32:26;48.21;46.19;56.25;;
75037;Laerm;64247;51.540;5.854;2023-01-24T02:34:29;49.68;46.25;57.28;;
75037;Laerm;64247;51.540;5.854;2023-01-24T02:36:36;48.19;46.18;51.32;;
75037;Laerm;64247;51.540;5.854;2023-01-24T02:38:43;48.71;45.89;56.76;;
75037;Laerm;64247;51.540;5.854;2023-01-24T02:40:50;47.80;46.01;51.25;;
75037;Laerm;64247;51.540;5.854;2023-01-24T02:42:56;47.79;46.07;49.46;;
75037;Laerm;64247;51.540;5.854;2023-01-24T02:45:30;48.16;46.00;51.56;;
75037;Laerm;64247;51.540;5.854;2023-01-24T02:47:42;48.40;46.56;52.27;;
75037;Laerm;64247;51.540;5.854;2023-01-24T02:49:44;48.01;46.16;51.09;;
75037;Laerm;64247;51.540;5.854;2023-01-24T02:51:45;47.61;45.99;50.20;;
75037;Laerm;64247;51.540;5.854;2023-01-24T02:54:04;51.36;46.08;63.53;;
75037;Laerm;64247;51.540;5.854;2023-01-24T02:56:07;50.66;46.60;65.28;;
75037;Laerm;64247;51.540;5.854;2023-01-24T02:58:27;49.47;45.46;58.87;;
75037;Laerm;64247;51.540;5.854;2023-01-24T03:00:28;48.07;45.89;56.07;;
75037;Laerm;64247;51.540;5.854;2023-01-24T03:02:32;47.81;45.72;52.77;;
75037;Laerm;64247;51.540;5.854;2023-01-24T03:04:33;48.19;45.70;57.89;;
75037;Laerm;64247;51.540;5.854;2023-01-24T03:06:35;48.40;45.61;57.22;;
75037;Laerm;64247;51.540;5.854;2023-01-24T03:08:36;48.11;45.74;56.44;;
75037;Laerm;64247;51.540;5.854;2023-01-24T03:10:42;48.41;46.31;55.91;;
75037;Laerm;64247;51.540;5.854;2023-01-24T03:12:48;55.37;46.27;74.11;;
75037;Laerm;64247;51.540;5.854;2023-01-24T03:15:08;48.87;46.36;57.96;;
75037;Laerm;64247;51.540;5.854;2023-01-24T03:17:27;50.16;46.56;62.60;;
75037;Laerm;64247;51.540;5.854;2023-01-24T03:19:47;48.46;46.01;59.15;;
75037;Laerm;64247;51.540;5.854;2023-01-24T03:22:06;48.11;46.41;51.91;;
75037;Laerm;64247;51.540;5.854;2023-01-24T03:24:26;48.17;45.72;51.89;;
75037;Laerm;64247;51.540;5.854;2023-01-24T03:26:46;49.46;45.91;57.01;;
75037;Laerm;64247;51.540;5.854;2023-01-24T03:29:06;47.70;46.05;54.72;;
75037;Laerm;64247;51.540;5.854;2023-01-24T03:31:26;48.81;45.93;55.45;;
75037;Laerm;64247;51.540;5.854;2023-01-24T03:33:46;47.58;45.32;49.13;;
75037;Laerm;64247;51.540;5.854;2023-01-24T03:36:07;48.09;45.91;57.00;;
75037;Laerm;64247;51.540;5.854;2023-01-24T03:38:11;48.00;46.00;53.01;;
75037;Laerm;64247;51.540;5.854;2023-01-24T03:40:30;47.82;46.11;52.81;;
75037;Laerm;64247;51.540;5.854;2023-01-24T03:42:31;51.57;46.44;63.64;;
75037;Laerm;64247;51.540;5.854;2023-01-24T03:44:32;51.10;46.75;60.29;;
75037;Laerm;64247;51.540;5.854;2023-01-24T03:46:33;49.33;46.08;56.75;;
75037;Laerm;64247;51.540;5.854;2023-01-24T03:48:40;47.72;45.89;54.64;;
75037;Laerm;64247;51.540;5.854;2023-01-24T03:50:43;48.53;45.89;60.01;;
75037;Laerm;64247;51.540;5.854;2023-01-24T03:53:09;47.88;45.50;56.03;;
75037;Laerm;64247;51.540;5.854;2023-01-24T03:55:10;47.52;45.46;51.30;;
75037;Laerm;64247;51.540;5.854;2023-01-24T03:57:11;48.36;45.99;53.68;;
75037;Laerm;64247;51.540;5.854;2023-01-24T03:59:12;47.52;45.59;50.17;;
75037;Laerm;64247;51.540;5.854;2023-01-24T04:01:14;49.38;45.95;59.92;;
75037;Laerm;64247;51.540;5.854;2023-01-24T04:03:35;48.82;45.82;57.05;;
75037;Laerm;64247;51.540;5.854;2023-01-24T04:05:36;48.56;46.19;55.63;;
75037;Laerm;64247;51.540;5.854;2023-01-24T04:07:37;48.76;45.41;57.13;;
75037;Laerm;64247;51.540;5.854;2023-01-24T04:09:40;48.89;45.71;57.46;;
75037;Laerm;64247;51.540;5.854;2023-01-24T04:11:41;48.05;45.90;52.31;;
75037;Laerm;64247;51.540;5.854;2023-01-24T04:13:49;51.66;46.79;57.90;;
75037;Laerm;64247;51.540;5.854;2023-01-24T04:15:51;49.07;46.26;57.31;;
75037;Laerm;64247;51.540;5.854;2023-01-24T04:18:15;49.13;45.95;57.98;;
75037;Laerm;64247;51.540;5.854;2023-01-24T04:20:16;48.97;46.66;56.41;;
75037;Laerm;64247;51.540;5.854;2023-01-24T04:22:18;50.46;46.71;60.07;;
75037;Laerm;64247;51.540;5.854;2023-01-24T04:24:19;48.93;46.02;56.11;;
75037;Laerm;64247;51.540;5.854;2023-01-24T04:26:20;49.26;46.05;62.61;;
75037;Laerm;64247;51.540;5.854;2023-01-24T04:28:23;49.64;46.69;54.38;;
75037;Laerm;64247;51.540;5.854;2023-01-24T04:30:25;48.46;45.91;53.56;;
75037;Laerm;64247;51.540;5.854;2023-01-24T04:32:29;50.21;46.42;60.09;;
75037;Laerm;64247;51.540;5.854;2023-01-24T04:34:33;49.32;46.96;54.47;;
75037;Laerm;64247;51.540;5.854;2023-01-24T04:36:35;49.20;46.40;54.22;;
75037;Laerm;64247;51.540;5.854;2023-01-24T04:38:37;49.98;46.58;56.23;;
75037;Laerm;64247;51.540;5.854;2023-01-24T04:40:58;49.73;46.09;54.58;;
75037;Laerm;64247;51.540;5.854;2023-01-24T04:42:59;50.15;46.45;58.17;;
75037;Laerm;64247;51.540;5.854;2023-01-24T04:45:00;50.13;46.89;57.62;;
75037;Laerm;64247;51.540;5.854;2023-01-24T04:47:01;50.28;46.41;60.70;;
75037;Laerm;64247;51.540;5.854;2023-01-24T04:49:02;48.71;46.07;54.42;;
75037;Laerm;64247;51.540;5.854;2023-01-24T04:51:12;48.41;45.72;52.83;;
75037;Laerm;64247;51.540;5.854;2023-01-24T04:53:13;49.76;46.20;55.73;;
75037;Laerm;64247;51.540;5.854;2023-01-24T04:55:15;48.23;45.93;53.54;;
75037;Laerm;64247;51.540;5.854;2023-01-24T04:57:17;49.20;46.60;54.59;;
75037;Laerm;64247;51.540;5.854;2023-01-24T04:59:18;49.51;46.48;54.72;;
75037;Laerm;64247;51.540;5.854;2023-01-24T05:01:21;49.36;46.19;54.23;;
75037;Laerm;64247;51.540;5.854;2023-01-24T05:03:34;50.82;46.71;56.17;;
75037;Laerm;64247;51.540;5.854;2023-01-24T05:05:35;50.15;46.47;55.89;;
75037;Laerm;64247;51.540;5.854;2023-01-24T05:07:36;49.37;45.49;58.93;;
75037;Laerm;64247;51.540;5.854;2023-01-24T05:09:44;48.71;46.32;53.24;;
75037;Laerm;64247;51.540;5.854;2023-01-24T05:11:46;49.55;46.54;57.66;;
75037;Laerm;64247;51.540;5.854;2023-01-24T05:13:47;48.58;46.06;52.02;;
75037;Laerm;64247;51.540;5.854;2023-01-24T05:15:50;49.38;46.46;54.82;;
75037;Laerm;64247;51.540;5.854;2023-01-24T05:17:52;48.84;46.39;52.82;;
75037;Laerm;64247;51.540;5.854;2023-01-24T05:19:55;50.91;47.52;62.37;;
75037;Laerm;64247;51.540;5.854;2023-01-24T05:21:57;52.97;47.77;64.47;;
75037;Laerm;64247;51.540;5.854;2023-01-24T05:23:58;51.46;47.28;57.24;;
75037;Laerm;64247;51.540;5.854;2023-01-24T05:25:59;50.58;46.95;57.08;;
75037;Laerm;64247;51.540;5.854;2023-01-24T05:28:00;50.37;46.70;57.02;;
75037;Laerm;64247;51.540;5.854;2023-01-24T05:30:03;52.63;48.63;61.92;;
75037;Laerm;64247;51.540;5.854;2023-01-24T05:32:05;51.09;47.63;60.83;;
75037;Laerm;64247;51.540;5.854;2023-01-24T05:34:06;50.74;47.42;56.17;;
75037;Laerm;64247;51.540;5.854;2023-01-24T05:36:22;51.61;48.08;58.83;;
75037;Laerm;64247;51.540;5.854;2023-01-24T05:38:25;51.71;47.94;57.83;;
75037;Laerm;64247;51.540;5.854;2023-01-24T05:40:27;52.15;48.83;60.73;;
75037;Laerm;64247;51.540;5.854;2023-01-24T05:42:28;49.97;47.67;52.91;;
75037;Laerm;64247;51.540;5.854;2023-01-24T05:44:29;51.10;47.77;54.45;;
75037;Laerm;64247;51.540;5.854;2023-01-24T05:46:32;51.49;47.88;58.60;;
75037;Laerm;64247;51.540;5.854;2023-01-24T05:48:48;52.59;48.19;61.59;;
75037;Laerm;64247;51.540;5.854;2023-01-24T05:51:01;52.12;48.03;61.74;;
75037;Laerm;64247;51.540;5.854;2023-01-24T05:53:03;50.66;47.36;59.73;;
75037;Laerm;64247;51.540;5.854;2023-01-24T05:55:05;50.27;46.13;57.90;;
75037;Laerm;64247;51.540;5.854;2023-01-24T05:57:10;53.00;48.56;63.32;;
75037;Laerm;64247;51.540;5.854;2023-01-24T05:59:31;51.35;47.62;60.98;;
75037;Laerm;64247;51.540;5.854;2023-01-24T06:01:33;50.52;48.07;57.22;;
75037;Laerm;64247;51.540;5.854;2023-01-24T06:03:36;52.41;47.98;66.88;;
75037;Laerm;64247;51.540;5.854;2023-01-24T06:05:37;52.77;48.18;64.32;;
75037;Laerm;64247;51.540;5.854;2023-01-24T06:07:38;50.66;47.84;54.12;;
75037;Laerm;64247;51.540;5.854;2023-01-24T06:09:39;50.95;47.05;56.30;;
75037;Laerm;64247;51.540;5.854;2023-01-24T06:11:40;52.39;49.33;59.86;;
75037;Laerm;64247;51.540;5.854;2023-01-24T06:13:50;53.12;48.06;65.11;;
75037;Laerm;64247;51.540;5.854;2023-01-24T06:15:51;51.40;47.28;56.36;;
75037;Laerm;64247;51.540;5.854;2023-01-24T06:17:51;52.11;47.61;58.71;;
75037;Laerm;64247;51.540;5.854;2023-01-24T06:19:53;53.06;48.31;61.43;;
75037;Laerm;64247;51.540;5.854;2023-01-24T06:22:21;51.19;48.80;53.81;;
75037;Laerm;64247;51.540;5.854;2023-01-24T06:24:27;51.95;48.07;59.21;;
75037;Laerm;64247;51.540;5.854;2023-01-24T06:26:52;51.91;48.15;62.03;;
75037;Laerm;64247;51.540;5.854;2023-01-24T06:28:54;52.76;49.16;58.54;;
75037;Laerm;64247;51.540;5.854;2023-01-24T06:37:48;53.44;48.96;60.85;;
75037;Laerm;64247;51.540;5.854;2023-01-24T06:39:52;52.84;48.60;61.45;;
75037;Laerm;64247;51.540;5.854;2023-01-24T06:41:54;51.96;48.47;63.87;;
75037;Laerm;64247;51.540;5.854;2023-01-24T06:43:55;54.40;49.75;68.96;;
75037;Laerm;64247;51.540;5.854;2023-01-24T06:45:56;52.54;48.63;61.17;;
75037;Laerm;64247;51.540;5.854;2023-01-24T06:47:57;53.53;49.82;62.58;;
75037;Laerm;64247;51.540;5.854;2023-01-24T06:49:58;52.93;48.60;61.13;;
75037;Laerm;64247;51.540;5.854;2023-01-24T06:51:59;53.23;48.91;59.50;;
75037;Laerm;64247;51.540;5.854;2023-01-24T06:54:00;52.10;48.70;59.60;;
75037;Laerm;64247;51.540;5.854;2023-01-24T06:56:01;52.24;47.84;59.76;;
75037;Laerm;64247;51.540;5.854;2023-01-24T06:58:03;52.01;46.93;60.61;;
75037;Laerm;64247;51.540;5.854;2023-01-24T07:00:06;53.32;49.35;62.76;;
75037;Laerm;64247;51.540;5.854;2023-01-24T07:02:10;54.64;48.53;67.72;;
75037;Laerm;64247;51.540;5.854;2023-01-24T07:04:11;51.96;48.31;68.98;;
75037;Laerm;64247;51.540;5.854;2023-01-24T07:06:11;53.22;48.98;64.85;;
75037;Laerm;64247;51.540;5.854;2023-01-24T07:08:12;53.19;48.36;62.06;;
75037;Laerm;64247;51.540;5.854;2023-01-24T07:10:13;53.50;48.48;60.88;;
75037;Laerm;64247;51.540;5.854;2023-01-24T07:12:14;53.48;48.14;68.46;;
75037;Laerm;64247;51.540;5.854;2023-01-24T07:14:15;53.81;50.15;59.64;;
75037;Laerm;64247;51.540;5.854;2023-01-24T07:16:16;54.56;48.62;63.06;;
75037;Laerm;64247;51.540;5.854;2023-01-24T07:18:18;53.18;48.98;64.34;;
75037;Laerm;64247;51.540;5.854;2023-01-24T07:20:20;54.97;49.10;66.69;;
75037;Laerm;64247;51.540;5.854;2023-01-24T07:22:21;54.41;46.83;71.83;;
75037;Laerm;64247;51.540;5.854;2023-01-24T07:24:28;50.94;47.74;55.21;;
75037;Laerm;64247;51.540;5.854;2023-01-24T07:26:30;50.53;47.40;57.29;;
75037;Laerm;64247;51.540;5.854;2023-01-24T07:28:31;53.36;49.16;67.32;;
75037;Laerm;64247;51.540;5.854;2023-01-24T07:30:31;57.83;49.25;67.53;;
75037;Laerm;64247;51.540;5.854;2023-01-24T07:32:32;51.37;46.95;60.87;;
75037;Laerm;64247;51.540;5.854;2023-01-24T07:34:33;52.79;49.00;63.91;;
75037;Laerm;64247;51.540;5.854;2023-01-24T07:36:34;52.97;47.80;63.47;;
75037;Laerm;64247;51.540;5.854;2023-01-24T07:38:35;52.21;47.46;61.26;;
75037;Laerm;64247;51.540;5.854;2023-01-24T07:40:36;50.43;46.87;56.69;;
75037;Laerm;64247;51.540;5.854;2023-01-24T07:42:38;57.68;49.13;73.48;;
75037;Laerm;64247;51.540;5.854;2023-01-24T07:44:38;58.98;55.35;74.31;;
75037;Laerm;64247;51.540;5.854;2023-01-24T07:46:39;60.42;48.95;73.39;;
75037;Laerm;64247;51.540;5.854;2023-01-24T07:48:40;55.85;49.27;75.93;;
75037;Laerm;64247;51.540;5.854;2023-01-24T07:50:41;53.52;47.36;63.56;;
75037;Laerm;64247;51.540;5.854;2023-01-24T07:52:42;58.08;49.49;79.26;;
75037;Laerm;64247;51.540;5.854;2023-01-24T07:54:42;52.63;47.74;64.38;;
75037;Laerm;64247;51.540;5.854;2023-01-24T07:56:43;51.85;47.64;59.44;;
75037;Laerm;64247;51.540;5.854;2023-01-24T07:58:44;51.21;47.39;68.73;;
75037;Laerm;64247;51.540;5.854;2023-01-24T08:00:45;50.53;46.70;60.21;;
75037;Laerm;64247;51.540;5.854;2023-01-24T08:02:48;53.36;46.85;64.04;;
75037;Laerm;64247;51.540;5.854;2023-01-24T08:04:49;53.36;47.95;67.54;;
75037;Laerm;64247;51.540;5.854;2023-01-24T08:06:49;60.51;47.64;78.10;;
75037;Laerm;64247;51.540;5.854;2023-01-24T08:09:09;58.91;48.41;72.80;;
75037;Laerm;64247;51.540;5.854;2023-01-24T08:11:09;55.82;48.33;69.65;;
75037;Laerm;64247;51.540;5.854;2023-01-24T08:13:16;52.03;46.97;72.24;;
75037;Laerm;64247;51.540;5.854;2023-01-24T08:15:17;54.14;47.70;67.22;;
75037;Laerm;64247;51.540;5.854;2023-01-24T08:17:18;55.37;48.50;74.98;;
75037;Laerm;64247;51.540;5.854;2023-01-24T08:19:19;54.08;48.22;63.50;;
75037;Laerm;64247;51.540;5.854;2023-01-24T08:21:19;52.87;47.70;61.85;;
75037;Laerm;64247;51.540;5.854;2023-01-24T08:23:20;55.42;49.08;67.49;;
75037;Laerm;64247;51.540;5.854;2023-01-24T08:25:21;52.21;47.41;63.46;;
75037;Laerm;64247;51.540;5.854;2023-01-24T08:27:22;50.82;46.90;62.10;;
75037;Laerm;64247;51.540;5.854;2023-01-24T08:29:23;49.80;46.93;55.30;;
75037;Laerm;64247;51.540;5.854;2023-01-24T08:31:24;51.44;47.59;58.05;;
75037;Laerm;64247;51.540;5.854;2023-01-24T08:33:25;53.60;48.56;65.11;;
75037;Laerm;64247;51.540;5.854;2023-01-24T08:35:26;51.41;47.35;58.96;;
75037;Laerm;64247;51.540;5.854;2023-01-24T08:37:27;51.71;47.98;58.43;;
75037;Laerm;64247;51.540;5.854;2023-01-24T08:39:28;51.37;48.00;56.62;;
75037;Laerm;64247;51.540;5.854;2023-01-24T08:41:28;52.49;48.05;62.34;;
75037;Laerm;64247;51.540;5.854;2023-01-24T08:43:30;53.29;48.67;58.79;;
75037;Laerm;64247;51.540;5.854;2023-01-24T08:45:31;50.65;47.52;59.36;;
75037;Laerm;64247;51.540;5.854;2023-01-24T08:47:31;51.93;46.92;62.89;;
75037;Laerm;64247;51.540;5.854;2023-01-24T08:49:32;51.01;47.42;60.41;;
75037;Laerm;64247;51.540;5.854;2023-01-24T08:51:33;51.68;48.03;58.18;;
75037;Laerm;64247;51.540;5.854;2023-01-24T08:53:34;53.22;47.89;63.08;;
75037;Laerm;64247;51.540;5.854;2023-01-24T08:55:35;53.52;47.26;62.55;;
75037;Laerm;64247;51.540;5.854;2023-01-24T08:57:36;50.84;46.88;57.78;;
75037;Laerm;64247;51.540;5.854;2023-01-24T08:59:37;51.88;47.64;62.68;;
75037;Laerm;64247;51.540;5.854;2023-01-24T09:01:38;49.43;46.85;56.46;;
75037;Laerm;64247;51.540;5.854;2023-01-24T09:03:41;51.46;47.11;58.34;;
75037;Laerm;64247;51.540;5.854;2023-01-24T09:05:41;51.30;47.37;68.36;;
75037;Laerm;64247;51.540;5.854;2023-01-24T09:07:42;57.06;48.27;71.95;;
75037;Laerm;64247;51.540;5.854;2023-01-24T09:09:44;63.60;55.07;75.87;;
75037;Laerm;64247;51.540;5.854;2023-01-24T09:11:45;62.44;59.06;78.47;;
75037;Laerm;64247;51.540;5.854;2023-01-24T09:13:46;63.97;58.89;80.97;;
75037;Laerm;64247;51.540;5.854;2023-01-24T09:15:47;60.13;47.27;76.11;;
75037;Laerm;64247;51.540;5.854;2023-01-24T09:17:48;62.97;47.97;84.28;;
75037;Laerm;64247;51.540;5.854;2023-01-24T09:19:49;50.55;47.60;57.74;;
75037;Laerm;64247;51.540;5.854;2023-01-24T09:21:49;49.12;46.39;54.74;;
75037;Laerm;64247;51.540;5.854;2023-01-24T09:23:55;51.58;47.42;60.64;;
75037;Laerm;64247;51.540;5.854;2023-01-24T09:25:56;51.96;46.93;59.02;;
75037;Laerm;64247;51.540;5.854;2023-01-24T09:27:57;52.23;48.32;61.79;;
75037;Laerm;64247;51.540;5.854;2023-01-24T09:29:58;51.73;47.39;61.81;;
75037;Laerm;64247;51.540;5.854;2023-01-24T09:31:58;50.04;46.00;61.90;;
75037;Laerm;64247;51.540;5.854;2023-01-24T09:33:59;50.40;46.23;60.15;;
75037;Laerm;64247;51.540;5.854;2023-01-24T09:36:02;53.69;47.42;68.31;;
75037;Laerm;64247;51.540;5.854;2023-01-24T09:38:03;51.47;47.78;59.17;;
75037;Laerm;64247;51.540;5.854;2023-01-24T09:40:05;50.74;47.36;58.43;;
75037;Laerm;64247;51.540;5.854;2023-01-24T09:42:45;53.08;47.33;63.25;;
75037;Laerm;64247;51.540;5.854;2023-01-24T09:45:34;52.41;47.73;69.38;;
75037;Laerm;64247;51.540;5.854;2023-01-24T09:50:16;51.69;46.94;61.91;;
75037;Laerm;64247;51.540;5.854;2023-01-24T09:52:35;52.49;46.84;65.32;;
75037;Laerm;64247;51.540;5.854;2023-01-24T09:54:51;51.59;46.93;60.62;;
75037;Laerm;64247;51.540;5.854;2023-01-24T09:56:55;51.49;47.39;56.57;;
75037;Laerm;64247;51.540;5.854;2023-01-24T09:59:42;52.31;46.81;61.54;;
75037;Laerm;64247;51.540;5.854;2023-01-24T10:01:47;50.38;47.15;57.76;;
75037;Laerm;64247;51.540;5.854;2023-01-24T10:03:48;56.44;46.62;78.01;;
75037;Laerm;64247;51.540;5.854;2023-01-24T10:05:52;63.67;53.40;78.30;;
75037;Laerm;64247;51.540;5.854;2023-01-24T10:08:34;60.58;57.47;66.65;;
75037;Laerm;64247;51.540;5.854;2023-01-24T10:18:49;60.38;57.31;67.37;;
75037;Laerm;64247;51.540;5.854;2023-01-24T10:23:52;50.77;47.51;56.39;;
75037;Laerm;64247;51.540;5.854;2023-01-24T10:26:38;50.23;47.53;59.08;;
75037;Laerm;64247;51.540;5.854;2023-01-24T10:32:04;52.98;47.14;68.61;;
75037;Laerm;64247;51.540;5.854;2023-01-24T10:34:44;51.93;47.78;61.88;;
75037;Laerm;64247;51.540;5.854;2023-01-24T10:37:28;50.57;46.98;56.22;;
75037;Laerm;64247;51.540;5.854;2023-01-24T10:39:32;52.75;48.67;62.44;;
75037;Laerm;64247;51.540;5.854;2023-01-24T10:41:33;51.15;47.83;57.73;;
75037;Laerm;64247;51.540;5.854;2023-01-24T10:43:34;51.97;47.25;65.59;;
75037;Laerm;64247;51.540;5.854;2023-01-24T10:48:49;50.45;47.92;56.72;;
75037;Laerm;64247;51.540;5.854;2023-01-24T10:50:51;52.14;47.70;61.51;;
75037;Laerm;64247;51.540;5.854;2023-01-24T10:52:52;51.40;47.23;59.35;;
75037;Laerm;64247;51.540;5.854;2023-01-24T10:55:02;51.02;47.08;62.53;;
75037;Laerm;64247;51.540;5.854;2023-01-24T10:57:03;51.08;46.83;58.56;;
75037;Laerm;64247;51.540;5.854;2023-01-24T10:59:12;61.96;47.14;79.89;;
75037;Laerm;64247;51.540;5.854;2023-01-24T11:01:20;52.28;46.82;62.22;;
75037;Laerm;64247;51.540;5.854;2023-01-24T11:03:33;51.15;46.69;60.00;;
75037;Laerm;64247;51.540;5.854;2023-01-24T11:05:48;51.29;47.48;61.45;;
75037;Laerm;64247;51.540;5.854;2023-01-24T11:07:59;50.95;46.90;61.54;;
75037;Laerm;64247;51.540;5.854;2023-01-24T11:10:19;50.40;47.66;59.43;;
75037;Laerm;64247;51.540;5.854;2023-01-24T11:12:20;51.35;48.08;58.77;;
75037;Laerm;64247;51.540;5.854;2023-01-24T11:14:26;54.52;47.11;69.68;;
75037;Laerm;64247;51.540;5.854;2023-01-24T11:16:51;50.44;47.29;60.66;;
75037;Laerm;64247;51.540;5.854;2023-01-24T11:18:59;51.43;47.45;61.19;;
75037;Laerm;64247;51.540;5.854;2023-01-24T11:21:28;51.84;47.20;62.81;;
75037;Laerm;64247;51.540;5.854;2023-01-24T11:23:29;49.25;47.24;52.76;;
75037;Laerm;64247;51.540;5.854;2023-01-24T11:25:31;49.66;46.80;54.97;;
75037;Laerm;64247;51.540;5.854;2023-01-24T11:27:46;53.61;47.88;62.91;;
75037;Laerm;64247;51.540;5.854;2023-01-24T11:30:25;51.64;46.87;65.23;;
75037;Laerm;64247;51.540;5.854;2023-01-24T11:34:17;50.37;47.05;56.86;;
75037;Laerm;64247;51.540;5.854;2023-01-24T11:35:54;51.23;47.38;59.07;;
75037;Laerm;64247;51.540;5.854;2023-01-24T11:38:43;52.08;47.09;61.01;;
75037;Laerm;64247;51.540;5.854;2023-01-24T11:41:17;50.63;47.75;55.47;;
75037;Laerm;64247;51.540;5.854;2023-01-24T11:46:51;52.62;47.58;60.79;;
75037;Laerm;64247;51.540;5.854;2023-01-24T11:53:09;58.83;52.64;79.53;;
75037;Laerm;64247;51.540;5.854;2023-01-24T12:00:23;51.09;46.88;60.84;;
75037;Laerm;64247;51.540;5.854;2023-01-24T12:05:41;51.97;47.15;62.00;;
75037;Laerm;64247;51.540;5.854;2023-01-24T12:21:19;60.20;47.85;71.57;;
75037;Laerm;64247;51.540;5.854;2023-01-24T12:23:27;51.39;48.43;58.82;;
75037;Laerm;64247;51.540;5.854;2023-01-24T12:25:37;53.81;48.07;68.63;;
75037;Laerm;64247;51.540;5.854;2023-01-24T12:27:42;52.19;47.27;61.44;;
75037;Laerm;64247;51.540;5.854;2023-01-24T12:30:02;54.72;48.18;67.95;;
75037;Laerm;64247;51.540;5.854;2023-01-24T12:32:44;50.04;47.14;55.65;;
75037;Laerm;64247;51.540;5.854;2023-01-24T12:35:28;51.58;47.29;62.23;;
75037;Laerm;64247;51.540;5.854;2023-01-24T12:38:19;51.17;47.15;60.06;;
75037;Laerm;64247;51.540;5.854;2023-01-24T12:40:41;52.75;47.72;66.40;;
75037;Laerm;64247;51.540;5.854;2023-01-24T12:46:35;52.75;48.64;61.31;;
75037;Laerm;64247;51.540;5.854;2023-01-24T12:49:54;50.73;47.49;57.82;;
75037;Laerm;64247;51.540;5.854;2023-01-24T12:55:16;49.10;46.59;56.02;;